ΕΜΥ, Εθνική Μετεωρολογική Υπηρεσία - Δελτία Καιρού, Προγνώσεις

ΑΕΡΟΝΑΥΤΙΛΙΑ

GREEK AIRPORTS CODES

LGAT 210800Z VRB06KT CAVOK 26/01 Q1017 RMK FEW180=

EUROPEAN AIRPORTS CODES

LFPO 210830Z 20004KT 130V290 9999 FEW025 SCT038 BKN260 18/12Q1024 NOSIG=